createdAt,value
2018-05-13T00:01:38.401Z,7.03
2018-05-13T00:04:06.164Z,6.73
2018-05-13T00:06:33.773Z,6.07
2018-05-13T00:09:01.327Z,5.27
2018-05-13T00:11:28.904Z,5.60
2018-05-13T00:13:57.314Z,6.27
2018-05-13T00:16:24.979Z,5.13
2018-05-13T00:18:52.609Z,5.23
2018-05-13T00:21:21.138Z,5.03
2018-05-13T00:23:48.885Z,5.60
2018-05-13T00:26:16.469Z,7.10
2018-05-13T00:28:44.102Z,6.53
2018-05-13T00:31:11.762Z,6.13
2018-05-13T00:33:39.310Z,6.60
2018-05-13T00:36:06.980Z,6.33
2018-05-13T00:38:34.542Z,6.63
2018-05-13T00:41:02.140Z,6.90
2018-05-13T00:43:29.757Z,6.50
2018-05-13T00:45:57.334Z,6.87
2018-05-13T00:48:24.976Z,7.67
2018-05-13T00:50:52.526Z,6.73
2018-05-13T00:53:20.198Z,6.80
2018-05-13T00:55:47.830Z,6.83
2018-05-13T00:58:16.244Z,6.80
2018-05-13T01:00:43.816Z,6.77
2018-05-13T01:03:11.397Z,7.80
2018-05-13T01:05:39.016Z,7.23
2018-05-13T01:08:06.668Z,7.30
2018-05-13T01:10:34.306Z,7.10
2018-05-13T01:13:02.650Z,7.00
2018-05-13T01:15:30.214Z,7.20
2018-05-13T01:17:57.769Z,7.93
2018-05-13T01:20:25.345Z,7.67
2018-05-13T01:22:53.757Z,8.43
2018-05-13T01:25:21.353Z,8.90
2018-05-13T01:27:49.015Z,8.20
2018-05-13T01:30:16.593Z,9.10
2018-05-13T01:32:44.157Z,8.57
2018-05-13T01:35:11.729Z,8.53
2018-05-13T01:37:40.183Z,8.27
2018-05-13T01:40:07.853Z,8.27
2018-05-13T01:42:36.141Z,7.77
2018-05-13T01:45:04.545Z,8.60
2018-05-13T01:47:32.063Z,7.90
2018-05-13T01:50:00.482Z,7.57
2018-05-13T01:52:28.039Z,7.50
2018-05-13T01:54:55.546Z,8.37
2018-05-13T01:57:23.157Z,7.97
2018-05-13T01:59:50.656Z,7.87
2018-05-13T02:02:18.222Z,7.60
2018-05-13T02:04:45.840Z,8.33
2018-05-13T02:07:13.473Z,8.70
2018-05-13T02:09:40.993Z,8.33
2018-05-13T02:12:08.538Z,8.30
2018-05-13T02:14:36.164Z,7.47
2018-05-13T02:17:03.700Z,7.27
2018-05-13T02:19:31.224Z,7.60
2018-05-13T02:21:58.810Z,7.33
2018-05-13T02:24:27.156Z,6.90
2018-05-13T02:26:54.674Z,7.53
2018-05-13T02:29:22.331Z,6.93
2018-05-13T02:31:49.846Z,6.80
2018-05-13T02:34:18.177Z,6.40
2018-05-13T02:36:45.685Z,6.90
2018-05-13T02:39:13.997Z,7.00
2018-05-13T02:41:41.516Z,7.03
2018-05-13T02:44:10.038Z,7.00
2018-05-13T02:46:37.592Z,6.40
2018-05-13T02:49:05.152Z,7.73
2018-05-13T02:51:32.686Z,6.60
2018-05-13T02:54:01.188Z,6.77
2018-05-13T02:56:28.812Z,6.83
2018-05-13T02:58:57.105Z,6.30
2018-05-13T03:01:24.640Z,6.37
2018-05-13T03:03:52.924Z,6.90
2018-05-13T03:06:21.231Z,6.50
2018-05-13T03:08:48.885Z,6.80
2018-05-13T03:11:16.452Z,6.30
2018-05-13T03:13:44.057Z,5.97
2018-05-13T03:16:12.432Z,6.23
2018-05-13T03:18:41.613Z,6.37
2018-05-13T03:21:09.173Z,5.63
2018-05-13T03:23:36.706Z,5.80
2018-05-13T03:26:04.256Z,6.23
2018-05-13T03:28:31.773Z,6.10
2018-05-13T03:31:00.100Z,6.33
2018-05-13T03:33:27.608Z,6.90
2018-05-13T03:35:55.888Z,5.70
2018-05-13T03:38:24.304Z,6.30
2018-05-13T03:40:51.866Z,5.73
2018-05-13T03:43:19.397Z,5.93
2018-05-13T03:45:47.076Z,5.30
2018-05-13T03:48:14.630Z,5.93
2018-05-13T03:50:42.301Z,5.97
2018-05-13T03:53:09.833Z,5.07
2018-05-13T03:55:37.410Z,5.80
2018-05-13T03:58:04.970Z,5.00
2018-05-13T04:00:32.505Z,5.10
2018-05-13T04:03:00.116Z,5.23
2018-05-13T04:05:27.747Z,5.50
2018-05-13T04:11:19.925Z,5.03
2018-05-13T04:13:59.123Z,4.53
2018-05-13T04:16:26.793Z,4.90
2018-05-13T04:18:54.332Z,4.90
2018-05-13T04:21:21.940Z,4.83
2018-05-13T04:23:49.469Z,5.00
2018-05-13T04:26:16.993Z,5.20
2018-05-13T04:28:45.451Z,4.50
2018-05-13T04:31:13.140Z,4.30
2018-05-13T04:33:40.813Z,4.50
2018-05-13T04:36:08.332Z,4.87
2018-05-13T04:38:35.944Z,4.33
2018-05-13T04:41:03.498Z,4.40
2018-05-13T04:43:31.033Z,4.50
2018-05-13T04:45:58.621Z,4.43
2018-05-13T04:48:26.192Z,4.17
2018-05-13T04:50:53.708Z,4.20
2018-05-13T04:53:21.272Z,4.50
2018-05-13T04:55:48.804Z,5.23
2018-05-13T04:58:17.080Z,5.00
2018-05-13T05:00:45.389Z,5.20
2018-05-13T05:03:12.953Z,6.00
2018-05-13T05:05:40.477Z,5.40
2018-05-13T05:08:08.889Z,5.50
2018-05-13T05:10:36.446Z,5.50
2018-05-13T05:13:03.949Z,5.20
2018-05-13T05:15:31.664Z,4.87
2018-05-13T05:17:59.182Z,5.77
2018-05-13T05:20:27.617Z,5.50
2018-05-13T05:22:55.262Z,5.43
2018-05-13T05:25:22.812Z,5.37
2018-05-13T05:27:50.534Z,5.33
2018-05-13T05:30:18.017Z,5.53
2018-05-13T05:32:45.561Z,5.07
2018-05-13T05:35:13.844Z,5.07
2018-05-13T05:37:41.391Z,5.67
2018-05-13T05:40:09.707Z,5.80
2018-05-13T05:42:37.253Z,4.73
2018-05-13T05:45:04.766Z,5.20
2018-05-13T05:47:32.324Z,5.50
2018-05-13T05:49:59.837Z,6.10
2018-05-13T05:52:27.391Z,5.20
2018-05-13T05:54:54.921Z,5.37
2018-05-13T05:57:22.508Z,5.47
2018-05-13T05:59:50.170Z,5.67
2018-05-13T06:02:17.805Z,5.33
2018-05-13T06:04:45.353Z,5.70
2018-05-13T06:07:13.642Z,5.77
2018-05-13T06:09:41.221Z,5.50
2018-05-13T06:12:08.947Z,5.27
2018-05-13T06:14:37.257Z,5.93
2018-05-13T06:17:04.821Z,6.57
2018-05-13T06:19:32.461Z,5.53
2018-05-13T06:22:00.012Z,5.23
2018-05-13T06:24:27.556Z,5.20
2018-05-13T06:26:55.836Z,5.10
2018-05-13T06:29:24.140Z,5.07
2018-05-13T06:31:51.701Z,5.50
2018-05-13T06:34:19.269Z,5.37
2018-05-13T06:36:46.797Z,6.03
2018-05-13T06:39:14.492Z,5.20
2018-05-13T06:41:42.040Z,4.90
2018-05-13T06:44:09.592Z,5.10
2018-05-13T06:46:37.216Z,5.23
2018-05-13T06:49:05.653Z,6.80
2018-05-13T06:51:33.349Z,5.40
2018-05-13T06:54:01.552Z,5.17
2018-05-13T06:56:29.100Z,6.00
2018-05-13T06:58:56.617Z,5.90
2018-05-13T07:01:24.167Z,6.73
2018-05-13T07:03:51.832Z,6.50
2018-05-13T07:06:20.140Z,6.30
2018-05-13T07:08:48.424Z,5.83
2018-05-13T07:11:15.996Z,6.53
2018-05-13T07:13:43.522Z,7.00
2018-05-13T07:16:11.921Z,6.43
2018-05-13T07:18:39.456Z,6.70
2018-05-13T07:21:07.917Z,6.83
2018-05-13T07:23:35.705Z,6.47
2018-05-13T07:26:03.993Z,6.70
2018-05-13T07:28:32.310Z,5.67
2018-05-13T07:30:59.836Z,7.00
2018-05-13T07:33:27.397Z,7.43
2018-05-13T07:35:54.929Z,7.13
2018-05-13T07:38:23.346Z,6.57
2018-05-13T07:40:50.910Z,7.67
2018-05-13T07:43:18.464Z,6.53
2018-05-13T07:45:46.126Z,6.57
2018-05-13T07:48:13.653Z,6.67
2018-05-13T07:50:41.985Z,6.20
2018-05-13T07:53:09.625Z,7.33
2018-05-13T07:55:37.205Z,6.73
2018-05-13T07:58:04.753Z,7.07
2018-05-13T08:00:32.379Z,7.00
2018-05-13T08:03:00.023Z,8.10
2018-05-13T08:05:28.535Z,7.40
2018-05-13T08:07:56.229Z,6.97
2018-05-13T08:10:23.855Z,7.40
2018-05-13T08:12:51.403Z,7.90
2018-05-13T08:15:18.940Z,7.57
2018-05-13T08:17:47.230Z,6.83
2018-05-13T08:20:14.997Z,6.70
2018-05-13T08:22:43.369Z,7.47
2018-05-13T08:25:11.046Z,6.70
2018-05-13T08:27:38.540Z,7.70
2018-05-13T08:30:06.092Z,8.10
2018-05-13T08:32:33.624Z,8.53
2018-05-13T08:35:01.201Z,8.40
2018-05-13T08:37:28.735Z,9.20
2018-05-13T08:39:56.300Z,8.20
2018-05-13T08:42:23.816Z,7.40
2018-05-13T08:44:52.228Z,7.13
2018-05-13T08:47:19.774Z,6.70
2018-05-13T08:49:47.342Z,7.00
2018-05-13T08:52:14.855Z,6.40
2018-05-13T08:54:42.401Z,6.10
2018-05-13T08:57:09.929Z,6.40
2018-05-13T08:59:37.527Z,5.93
2018-05-13T09:02:05.062Z,6.83
2018-05-13T09:04:32.719Z,6.93
2018-05-13T09:07:00.274Z,6.47
2018-05-13T09:09:27.869Z,6.00
2018-05-13T09:11:56.162Z,6.00
2018-05-13T09:14:24.533Z,6.00
2018-05-13T09:16:52.101Z,6.23
2018-05-13T09:19:19.670Z,5.10
2018-05-13T09:21:47.238Z,6.60
2018-05-13T09:24:14.774Z,6.63
2018-05-13T09:26:42.303Z,6.20
2018-05-13T09:29:09.958Z,6.20
2018-05-13T09:31:37.473Z,6.20
2018-05-13T09:34:05.132Z,5.20
2018-05-13T09:36:32.638Z,6.37
2018-05-13T09:39:00.221Z,5.50
2018-05-13T09:41:28.518Z,7.53
2018-05-13T09:43:56.060Z,7.00
2018-05-13T09:46:23.617Z,7.80
2018-05-13T09:48:52.022Z,7.37
2018-05-13T09:51:19.606Z,6.27
2018-05-13T09:53:47.084Z,6.10
2018-05-13T09:56:15.425Z,7.07
2018-05-13T09:58:42.949Z,7.37
2018-05-13T10:01:10.525Z,7.00
2018-05-13T10:03:38.208Z,8.70
2018-05-13T10:06:05.754Z,8.83
2018-05-13T10:08:33.268Z,9.80
2018-05-13T10:11:00.838Z,9.13
2018-05-13T10:13:28.416Z,8.93
2018-05-13T10:15:56.087Z,8.13
2018-05-13T10:18:23.636Z,9.67
2018-05-13T10:20:51.220Z,9.40
2018-05-13T10:23:18.797Z,10.60
2018-05-13T10:25:46.356Z,8.83
2018-05-13T10:28:13.908Z,10.03
2018-05-13T10:30:41.577Z,9.40
2018-05-13T10:33:09.116Z,9.20
2018-05-13T10:35:38.166Z,10.17
2018-05-13T10:38:05.821Z,10.23
2018-05-13T10:40:33.292Z,11.03
2018-05-13T10:43:00.954Z,10.33
2018-05-13T10:45:28.510Z,12.23
2018-05-13T10:47:56.069Z,12.20
2018-05-13T10:50:23.630Z,13.60
2018-05-13T10:52:51.321Z,10.90
2018-05-13T10:55:18.850Z,10.50
2018-05-13T10:57:46.458Z,10.27
2018-05-13T11:00:14.066Z,11.03
2018-05-13T11:02:41.658Z,11.67
2018-05-13T11:05:09.246Z,11.13
2018-05-13T11:07:36.772Z,11.90
2018-05-13T11:10:04.314Z,10.37
2018-05-13T11:12:32.113Z,11.40
2018-05-13T11:14:59.687Z,10.43
2018-05-13T11:17:28.099Z,11.30
2018-05-13T11:19:55.637Z,11.77
2018-05-13T11:22:23.188Z,10.80
2018-05-13T11:24:51.497Z,11.80
2018-05-13T11:27:19.074Z,11.40
2018-05-13T11:29:46.601Z,12.43
2018-05-13T11:32:14.165Z,11.70
2018-05-13T11:34:41.824Z,11.60
2018-05-13T11:37:09.484Z,13.10
2018-05-13T11:39:37.042Z,12.90
2018-05-13T11:42:04.579Z,12.50
2018-05-13T11:44:32.133Z,14.20
2018-05-13T11:46:59.830Z,13.40
2018-05-13T11:49:27.387Z,13.10
2018-05-13T11:51:54.952Z,15.93
2018-05-13T11:54:22.509Z,16.10
2018-05-13T11:56:50.066Z,17.30
2018-05-13T11:59:17.597Z,17.00
2018-05-13T12:01:45.161Z,17.13
2018-05-13T12:04:12.753Z,15.90
2018-05-13T12:06:40.285Z,16.47
2018-05-13T12:09:07.961Z,16.23
2018-05-13T12:11:35.603Z,15.60
2018-05-13T12:14:03.165Z,12.97
2018-05-13T12:16:30.752Z,15.03
2018-05-13T12:18:58.384Z,13.93
2018-05-13T12:21:25.933Z,13.93
2018-05-13T12:23:53.468Z,13.27
2018-05-13T12:26:21.804Z,15.60
2018-05-13T12:28:49.405Z,14.20
2018-05-13T12:31:17.065Z,14.53
2018-05-13T12:33:44.610Z,13.30
2018-05-13T12:36:12.204Z,13.20
2018-05-13T12:38:39.736Z,11.30
2018-05-13T12:41:08.042Z,13.27
2018-05-13T12:43:35.703Z,10.93
2018-05-13T12:46:03.292Z,12.70
2018-05-13T12:48:31.127Z,13.10
2018-05-13T12:50:58.668Z,10.53
2018-05-13T12:53:26.410Z,13.17
2018-05-13T12:55:54.822Z,11.60
2018-05-13T12:58:22.460Z,12.53
2018-05-13T13:00:50.042Z,12.63
2018-05-13T13:03:17.593Z,11.97
2018-05-13T13:05:45.114Z,13.03
2018-05-13T13:08:13.452Z,12.80
2018-05-13T13:10:41.096Z,12.47
2018-05-13T13:13:08.663Z,12.27
2018-05-13T13:15:36.209Z,12.53
2018-05-13T13:18:03.937Z,14.33
2018-05-13T13:20:32.277Z,12.70
2018-05-13T13:22:59.795Z,12.37
2018-05-13T13:25:27.345Z,13.93
2018-05-13T13:27:55.023Z,13.00
2018-05-13T13:30:22.689Z,12.93
2018-05-13T13:32:50.256Z,12.90
2018-05-13T13:35:18.457Z,14.67
2018-05-13T13:37:45.978Z,14.93
2018-05-13T13:40:13.533Z,15.10
2018-05-13T13:42:41.121Z,15.37
2018-05-13T13:45:08.751Z,17.73
2018-05-13T13:47:36.411Z,14.30
2018-05-13T13:50:03.992Z,15.37
2018-05-13T13:52:31.610Z,13.43
2018-05-13T13:54:59.188Z,15.77
2018-05-13T13:57:26.737Z,13.30
2018-05-13T13:59:54.509Z,13.70
2018-05-13T14:02:22.168Z,14.67
2018-05-13T14:04:49.701Z,14.47
2018-05-13T14:07:18.057Z,12.67
2018-05-13T14:09:45.694Z,13.67
2018-05-13T14:12:13.323Z,12.67
2018-05-13T14:14:40.879Z,11.17
2018-05-13T14:17:08.437Z,12.27
2018-05-13T14:19:36.142Z,15.20
2018-05-13T14:22:03.809Z,12.30
2018-05-13T14:24:31.333Z,12.50
2018-05-13T14:26:58.947Z,13.17
2018-05-13T14:29:26.456Z,13.07
2018-05-13T14:31:54.101Z,12.73
2018-05-13T14:34:21.693Z,14.20
2018-05-13T14:36:49.389Z,10.90
2018-05-13T14:39:17.701Z,11.53
2018-05-13T14:41:45.244Z,11.20
2018-05-13T14:44:13.585Z,10.67
2018-05-13T14:46:42.022Z,10.37
2018-05-13T14:49:09.581Z,11.07
2018-05-13T14:51:37.113Z,11.57
2018-05-13T14:54:04.693Z,10.87
2018-05-13T14:56:32.250Z,10.10
2018-05-13T14:58:59.833Z,9.73
2018-05-13T15:01:27.537Z,10.50
2018-05-13T15:03:55.129Z,9.27
2018-05-13T15:06:22.698Z,11.30
2018-05-13T15:08:50.211Z,10.80
2018-05-13T15:11:17.794Z,10.50
2018-05-13T15:13:45.331Z,9.03
2018-05-13T15:16:12.904Z,10.13
2018-05-13T15:18:40.429Z,12.20
2018-05-13T15:21:09.047Z,10.03
2018-05-13T15:23:36.705Z,10.00
2018-05-13T15:26:04.281Z,10.20
2018-05-13T15:28:31.833Z,9.27
2018-05-13T15:30:59.385Z,11.60
2018-05-13T15:33:27.040Z,10.57
2018-05-13T15:35:54.561Z,9.73
2018-05-13T15:38:22.262Z,8.70
2018-05-13T15:40:49.774Z,10.83
2018-05-13T15:43:18.380Z,9.87
2018-05-13T15:45:45.958Z,9.80
2018-05-13T15:48:13.542Z,10.07
2018-05-13T15:50:41.072Z,10.23
2018-05-13T15:53:08.697Z,9.60
2018-05-13T15:55:36.304Z,10.10
2018-05-13T15:58:03.873Z,11.20
2018-05-13T16:00:31.420Z,10.97
2018-05-13T16:02:59.077Z,10.60
2018-05-13T16:05:26.716Z,11.10
2018-05-13T16:07:54.287Z,9.83
2018-05-13T16:10:21.923Z,9.83
2018-05-13T16:12:50.349Z,10.57
2018-05-13T16:15:17.984Z,10.63
2018-05-13T16:17:45.553Z,10.50
2018-05-13T16:20:13.157Z,8.70
2018-05-13T16:22:40.682Z,9.10
2018-05-13T16:25:08.249Z,9.53
2018-05-13T16:27:35.923Z,9.23
2018-05-13T16:30:03.532Z,9.90
2018-05-13T16:32:31.062Z,9.43
2018-05-13T16:34:59.550Z,8.90
2018-05-13T16:37:27.869Z,9.77
2018-05-13T16:39:55.468Z,9.50
2018-05-13T16:42:23.008Z,9.03
2018-05-13T16:44:50.702Z,9.60
2018-05-13T16:47:18.398Z,9.20
2018-05-13T16:49:46.146Z,9.10
2018-05-13T16:52:13.685Z,9.10
2018-05-13T16:54:41.209Z,8.50
2018-05-13T16:57:08.768Z,8.97
2018-05-13T16:59:36.316Z,8.30
2018-05-13T17:02:03.944Z,8.30
2018-05-13T17:04:31.584Z,8.97
2018-05-13T17:06:59.133Z,9.50
2018-05-13T17:09:26.774Z,8.57
2018-05-13T17:11:54.384Z,8.40
2018-05-13T17:14:21.902Z,9.30
2018-05-13T17:16:50.335Z,8.70
2018-05-13T17:19:17.903Z,9.40
2018-05-13T17:21:45.511Z,8.83
2018-05-13T17:24:13.074Z,9.00
2018-05-13T17:26:40.692Z,8.43
2018-05-13T17:29:08.249Z,9.00
2018-05-13T17:31:35.966Z,10.50
2018-05-13T17:34:03.644Z,8.67
2018-05-13T17:36:31.294Z,9.80
2018-05-13T17:38:58.808Z,9.90
2018-05-13T17:41:26.382Z,9.47
2018-05-13T17:43:54.688Z,9.40
2018-05-13T17:46:22.253Z,9.00
2018-05-13T17:48:49.787Z,9.93
2018-05-13T17:51:17.416Z,10.27
2018-05-13T17:53:45.923Z,9.43
2018-05-13T17:56:13.479Z,9.33
2018-05-13T17:58:41.873Z,9.33
2018-05-13T18:01:09.475Z,9.10
2018-05-13T18:03:37.065Z,9.53
2018-05-13T18:06:05.471Z,9.33
2018-05-13T18:08:33.033Z,9.17
2018-05-13T18:11:00.593Z,11.00
2018-05-13T18:13:29.124Z,9.87
2018-05-13T18:15:56.684Z,9.10
2018-05-13T18:18:24.226Z,10.37
2018-05-13T18:20:51.982Z,9.77
2018-05-13T18:23:19.549Z,9.77
2018-05-13T18:25:47.081Z,9.70
2018-05-13T18:28:14.638Z,9.40
2018-05-13T18:30:42.169Z,10.07
2018-05-13T18:33:09.747Z,10.17
2018-05-13T18:35:37.330Z,9.33
2018-05-13T18:38:06.437Z,9.87
2018-05-13T18:40:34.814Z,10.03
2018-05-13T18:43:02.360Z,9.80
2018-05-13T18:45:29.986Z,10.43
2018-05-13T18:47:57.520Z,9.27
2018-05-13T18:50:25.206Z,10.47
2018-05-13T18:52:52.809Z,8.70
2018-05-13T18:55:20.394Z,9.20
2018-05-13T18:57:48.706Z,9.97
2018-05-13T19:00:16.264Z,9.67
2018-05-13T19:02:43.825Z,9.67
2018-05-13T19:05:11.546Z,11.03
2018-05-13T19:07:40.060Z,9.17
2018-05-13T19:10:07.754Z,9.43
2018-05-13T19:12:35.289Z,9.80
2018-05-13T19:15:02.951Z,11.20
2018-05-13T19:17:30.407Z,11.53
2018-05-13T19:19:57.968Z,10.17
2018-05-13T19:22:25.508Z,10.73
2018-05-13T19:24:53.173Z,10.60
2018-05-13T19:27:20.688Z,10.53
2018-05-13T19:29:49.068Z,10.53
2018-05-13T19:32:17.381Z,12.03
2018-05-13T19:34:44.980Z,12.33
2018-05-13T19:37:12.600Z,11.27
2018-05-13T19:39:40.114Z,10.87
2018-05-13T19:42:08.450Z,12.30
2018-05-13T19:44:36.145Z,11.80
2018-05-13T19:47:04.472Z,12.23
2018-05-13T19:49:31.997Z,11.60
2018-05-13T19:51:59.579Z,10.40
2018-05-13T19:54:27.198Z,10.97
2018-05-13T19:56:54.757Z,11.70
2018-05-13T19:59:23.087Z,10.27
2018-05-13T20:01:50.709Z,12.40
2018-05-13T20:04:19.195Z,10.60
2018-05-13T20:06:47.891Z,10.27
2018-05-13T20:09:15.467Z,10.77
2018-05-13T20:11:43.102Z,12.00
2018-05-13T20:14:10.784Z,10.77
2018-05-13T20:16:38.301Z,9.40
2018-05-13T20:19:06.688Z,10.73
2018-05-13T20:21:35.056Z,10.90
2018-05-13T20:24:02.600Z,10.10
2018-05-13T20:26:30.148Z,10.50
2018-05-13T20:28:57.728Z,9.60
2018-05-13T20:31:26.029Z,10.33
2018-05-13T20:33:53.572Z,9.80
2018-05-13T20:36:21.202Z,9.63
2018-05-13T20:38:48.845Z,9.23
2018-05-13T20:41:16.380Z,9.93
2018-05-13T20:43:43.938Z,9.63
2018-05-13T20:46:11.473Z,9.87
2018-05-13T20:48:39.154Z,10.00
2018-05-13T20:51:06.705Z,8.80
2018-05-13T20:53:34.241Z,9.00
2018-05-13T20:56:02.803Z,9.40
2018-05-13T20:58:30.277Z,9.47
2018-05-13T21:00:58.621Z,7.60
2018-05-13T21:03:26.169Z,8.90
2018-05-13T21:05:53.787Z,9.07
2018-05-13T21:11:20.393Z,9.87
2018-05-13T21:13:47.982Z,9.90
2018-05-13T21:16:16.362Z,12.70
2018-05-13T21:18:43.961Z,11.10
2018-05-13T21:21:11.948Z,11.30
2018-05-13T21:23:40.417Z,10.33
2018-05-13T21:26:08.667Z,12.30
2018-05-13T21:28:36.288Z,11.60
2018-05-13T21:31:04.254Z,12.30
2018-05-13T21:33:31.808Z,12.53
2018-05-13T21:36:00.216Z,12.70
2018-05-13T21:38:29.061Z,13.33
2018-05-13T21:40:56.605Z,14.10
2018-05-13T21:43:24.911Z,14.23
2018-05-13T21:45:52.483Z,14.43
2018-05-13T21:48:20.941Z,13.20
2018-05-13T21:50:48.558Z,12.77
2018-05-13T21:53:16.265Z,13.90
2018-05-13T21:55:43.802Z,14.83
2018-05-13T21:58:11.397Z,13.40
2018-05-13T22:03:13.319Z,15.07
2018-05-13T22:05:41.032Z,15.77
2018-05-13T22:08:08.850Z,15.10
2018-05-13T22:10:36.954Z,14.57
2018-05-13T22:13:05.290Z,14.37
2018-05-13T22:15:32.827Z,15.33
2018-05-13T22:18:00.857Z,16.27
2018-05-13T22:20:28.435Z,15.43
2018-05-13T22:22:56.885Z,13.77
2018-05-13T22:25:24.465Z,15.47
2018-05-13T22:27:51.989Z,14.30
2018-05-13T22:30:19.533Z,13.20
2018-05-13T22:32:47.370Z,14.00
2018-05-13T22:35:14.946Z,12.63
2018-05-13T22:37:42.697Z,13.17
2018-05-13T22:40:10.271Z,12.87
2018-05-13T22:42:38.705Z,11.30
2018-05-13T22:45:06.297Z,12.27
2018-05-13T22:47:33.830Z,13.80
2018-05-13T22:50:02.495Z,12.47
2018-05-13T22:52:31.573Z,11.27
2018-05-13T22:54:59.537Z,11.10
2018-05-13T22:57:27.069Z,12.77
2018-05-13T22:59:55.365Z,14.40
2018-05-13T23:02:22.930Z,13.67
2018-05-13T23:04:50.464Z,14.20
2018-05-13T23:07:18.021Z,13.17
2018-05-13T23:09:45.572Z,12.87
2018-05-13T23:12:13.273Z,12.67
2018-05-13T23:14:42.307Z,11.80
2018-05-13T23:17:09.866Z,13.43
2018-05-13T23:19:37.857Z,12.80
2018-05-13T23:22:05.409Z,11.57
2018-05-13T23:24:32.929Z,13.20
2018-05-13T23:27:01.262Z,12.70
2018-05-13T23:29:28.776Z,11.57
2018-05-13T23:31:57.159Z,12.53
2018-05-13T23:34:25.510Z,12.90
2018-05-13T23:36:53.400Z,12.20
2018-05-13T23:39:20.999Z,13.00
2018-05-13T23:41:49.392Z,13.63
2018-05-13T23:44:17.022Z,13.67
2018-05-13T23:46:44.630Z,14.03
2018-05-13T23:49:12.963Z,14.67
2018-05-13T23:51:40.480Z,15.33
2018-05-13T23:54:08.813Z,14.70
2018-05-13T23:56:36.334Z,15.87
2018-05-13T23:59:03.896Z,16.07
